Time;durP1;ratioP1;P1;durP2;ratioP2;P2;SDS_P1;SDS_P2;PMS_P1;PMS_P2;Temp;Humidity;BMP_temperature;BMP_pressure;BME280_temperature;BME280_humidity;BME280_pressure;Samples;Min_cycle;Max_cycle;Signal;HPM_P1;HPM_P2
2024/03/06 00:01:54;;;;;;;49.13;23.85;;;;;;;3.26;100.00;98566.09;6111577;19;20061;-72
2024/03/06 00:03:54;;;;;;;47.05;24.13;;;;;;;3.27;100.00;98567.69;6112370;19;20026;-71
2024/03/06 00:05:55;;;;;;;49.38;23.98;;;;;;;3.22;100.00;98563.19;6112902;19;20109;-71
2024/03/06 00:07:55;;;;;;;51.20;25.13;;;;;;;3.27;100.00;98573.16;6112829;19;20012;-72
2024/03/06 00:09:55;;;;;;;51.13;24.88;;;;;;;3.23;100.00;98564.81;6113288;19;20002;-72
2024/03/06 00:11:57;;;;;;;48.70;24.33;;;;;;;3.26;100.00;98569.63;6111163;19;20023;-72
2024/03/06 00:13:57;;;;;;;52.17;25.60;;;;;;;3.25;100.00;98562.56;6112462;19;20003;-72
2024/03/06 00:15:57;;;;;;;51.17;23.88;;;;;;;3.28;100.00;98575.56;6111693;19;20120;-72
2024/03/06 00:17:58;;;;;;;48.22;24.33;;;;;;;3.25;100.00;98578.16;6113272;19;20272;-71
2024/03/06 00:19:58;;;;;;;43.13;22.70;;;;;;;3.23;100.00;98573.03;6111345;19;20062;-71
2024/03/06 00:22:01;;;;;;;40.88;22.90;;;;;;;3.21;100.00;98586.19;6111001;19;20054;-72
2024/03/06 00:24:01;;;;;;;46.00;23.48;;;;;;;3.22;100.00;98587.81;6111373;19;20014;-72
2024/03/06 00:26:02;;;;;;;44.90;23.60;;;;;;;3.21;100.00;98574.47;6112433;19;20647;-72
2024/03/06 00:28:02;;;;;;;49.55;24.40;;;;;;;3.24;100.00;98585.56;6111238;19;20058;-72
2024/03/06 00:30:03;;;;;;;45.63;23.35;;;;;;;3.21;100.00;98588.94;6112061;19;20007;-72
2024/03/06 00:32:04;;;;;;;39.35;22.13;;;;;;;3.21;100.00;98593.59;6108842;19;20010;-71
2024/03/06 00:34:04;;;;;;;46.35;23.27;;;;;;;3.25;100.00;98591.84;6111980;19;20001;-71
2024/03/06 00:36:05;;;;;;;42.05;22.48;;;;;;;3.23;100.00;98599.56;6110994;19;20444;-71
2024/03/06 00:38:06;;;;;;;47.33;23.80;;;;;;;3.24;100.00;98599.25;6112114;19;20035;-72
2024/03/06 00:40:07;;;;;;;42.92;22.73;;;;;;;3.22;100.00;98596.00;6110721;19;20320;-72
2024/03/06 00:42:08;;;;;;;42.03;22.50;;;;;;;3.22;100.00;98604.22;6110307;19;20010;-72
2024/03/06 00:44:09;;;;;;;44.33;21.95;;;;;;;3.19;100.00;98599.41;6111984;19;20066;-72
2024/03/06 00:46:09;;;;;;;43.03;22.58;;;;;;;3.23;100.00;98608.56;6110831;19;20013;-72
2024/03/06 00:48:10;;;;;;;45.53;21.52;;;;;;;3.24;100.00;98610.19;6111029;19;20003;-72
2024/03/06 00:50:10;;;;;;;45.78;22.60;;;;;;;3.22;100.00;98612.41;6111645;19;20364;-72
2024/03/06 00:52:11;;;;;;;47.15;22.77;;;;;;;3.23;100.00;98611.31;6109001;19;20003;-71
2024/03/06 00:54:11;;;;;;;49.63;24.05;;;;;;;3.21;100.00;98613.53;6111271;19;19995;-72
2024/03/06 00:56:11;;;;;;;46.53;24.70;;;;;;;3.21;100.00;98613.53;6110249;19;20048;-72
2024/03/06 00:58:12;;;;;;;43.78;21.77;;;;;;;3.22;100.00;98622.53;6111304;19;19999;-72
2024/03/06 01:00:13;;;;;;;40.75;22.58;;;;;;;3.23;100.00;98621.44;6110559;19;20377;-72
2024/03/06 01:02:13;;;;;;;45.60;23.23;;;;;;;3.19;100.00;98621.28;6109044;19;20643;-72
2024/03/06 01:04:14;;;;;;;45.55;22.92;;;;;;;3.18;100.00;98610.66;6111453;19;20002;-72
2024/03/06 01:06:14;;;;;;;47.60;23.58;;;;;;;3.21;100.00;98620.94;6107790;19;20003;-72
2024/03/06 01:08:17;;;;;;;51.40;24.33;;;;;;;3.19;100.00;98624.00;6109894;19;20024;-71
2024/03/06 01:10:17;;;;;;;45.55;23.02;;;;;;;3.19;100.00;98623.22;6111259;19;20026;-72
2024/03/06 01:12:18;;;;;;;42.55;22.73;;;;;;;3.22;100.00;98625.28;6109531;19;20010;-72
2024/03/06 01:14:18;;;;;;;46.50;22.83;;;;;;;3.21;100.00;98618.22;6109687;19;20040;-72
2024/03/06 01:16:19;;;;;;;44.13;22.70;;;;;;;3.21;100.00;98616.28;6110146;19;20545;-72
2024/03/06 01:18:19;;;;;;;47.00;22.38;;;;;;;3.19;100.00;98621.28;6110603;19;20490;-72
2024/03/06 01:20:20;;;;;;;41.75;22.30;;;;;;;3.20;100.00;98614.69;6110484;19;20428;-72
2024/03/06 01:22:20;;;;;;;39.88;20.90;;;;;;;3.20;100.00;98624.81;6109022;19;20043;-72
2024/03/06 01:24:20;;;;;;;46.92;22.63;;;;;;;3.21;100.00;98626.41;6110838;19;20026;-72
2024/03/06 01:26:21;;;;;;;41.78;21.92;;;;;;;3.21;100.00;98624.47;6110460;19;20023;-72
2024/03/06 01:28:21;;;;;;;44.40;22.88;;;;;;;3.22;100.00;98638.94;6110174;19;20030;-72
2024/03/06 01:30:21;;;;;;;47.85;23.10;;;;;;;3.20;100.00;98628.34;6109878;19;20007;-72
2024/03/06 01:32:22;;;;;;;44.95;23.58;;;;;;;3.21;100.00;98631.88;6109293;19;20067;-72
2024/03/06 01:34:22;;;;;;;51.08;24.98;;;;;;;3.20;100.00;98633.00;6109676;19;20026;-71
2024/03/06 01:36:22;;;;;;;44.55;21.80;;;;;;;3.19;100.00;98634.94;6109924;19;20003;-71
2024/03/06 01:38:23;;;;;;;45.97;24.33;;;;;;;3.20;100.00;98643.94;6110467;19;20011;-72
2024/03/06 01:40:23;;;;;;;45.08;21.73;;;;;;;3.19;100.00;98637.69;6109116;19;20019;-72
2024/03/06 01:42:24;;;;;;;45.47;23.35;;;;;;;3.19;100.00;98639.63;6107924;19;20083;-72
2024/03/06 01:44:24;;;;;;;50.50;22.77;;;;;;;3.20;100.00;98638.47;6110057;19;20402;-72
2024/03/06 01:46:25;;;;;;;43.53;22.52;;;;;;;3.21;100.00;98640.88;6110008;19;20060;-72
2024/03/06 01:48:28;;;;;;;46.85;22.98;;;;;;;3.22;100.00;98634.28;6109461;19;20011;-72
2024/03/06 01:50:29;;;;;;;48.40;23.48;;;;;;;3.23;100.00;98643.31;6108573;19;20011;-71
2024/03/06 01:52:29;;;;;;;47.05;25.33;;;;;;;3.20;100.00;98647.50;6108445;19;20095;-71
2024/03/06 01:54:31;;;;;;;44.17;21.48;;;;;;;3.19;100.00;98637.69;6110003;19;20006;-71
2024/03/06 01:56:34;;;;;;;51.33;24.13;;;;;;;3.20;100.00;98644.75;6109708;19;20006;-72
2024/03/06 01:58:34;;;;;;;50.05;23.42;;;;;;;3.22;100.00;98647.16;6110321;19;20014;-72
2024/03/06 02:00:35;;;;;;;46.95;22.80;;;;;;;3.18;100.00;98633.34;6110063;19;20393;-72
2024/03/06 02:02:36;;;;;;;48.55;23.52;;;;;;;3.16;100.00;98638.34;6109093;19;20014;-72
2024/03/06 02:04:36;;;;;;;49.85;24.13;;;;;;;3.17;100.00;98642.69;6110810;19;20022;-72
2024/03/06 02:06:40;;;;;;;44.55;23.33;;;;;;;3.19;100.00;98647.81;6109958;19;20395;-72
2024/03/06 02:08:41;;;;;;;45.78;23.98;;;;;;;3.18;100.00;98643.47;6110378;19;20470;-72
2024/03/06 02:10:41;;;;;;;51.95;24.50;;;;;;;3.17;100.00;98636.41;6108915;19;20017;-71
2024/03/06 02:12:42;;;;;;;46.60;23.38;;;;;;;3.19;100.00;98643.16;6109360;19;20017;-72
2024/03/06 02:14:43;;;;;;;47.03;23.48;;;;;;;3.19;100.00;98645.88;6099635;19;20037;-72
2024/03/06 02:16:43;;;;;;;48.45;23.85;;;;;;;3.19;100.00;98639.63;6110246;19;20019;-72
2024/03/06 02:18:54;;;;;;;46.13;23.65;;;;;;;3.18;100.00;98638.81;6107065;19;20006;-71
2024/03/06 02:20:55;;;;;;;48.13;22.80;;;;;;;3.16;100.00;98637.53;6108553;19;20479;-71
2024/03/06 02:22:55;;;;;;;48.08;23.95;;;;;;;3.18;100.00;98640.75;6107976;19;20022;-72
2024/03/06 02:24:56;;;;;;;46.97;22.90;;;;;;;3.20;100.00;98643.94;6109944;19;20009;-72
2024/03/06 02:26:56;;;;;;;40.80;22.98;;;;;;;3.19;100.00;98636.88;6109338;19;20003;-71
2024/03/06 02:28:56;;;;;;;46.60;23.50;;;;;;;3.19;100.00;98639.63;6108833;19;19999;-71
2024/03/06 02:30:57;;;;;;;39.78;21.50;;;;;;;3.19;100.00;98632.22;6107044;19;20519;-72
2024/03/06 02:32:58;;;;;;;45.92;22.95;;;;;;;3.22;100.00;98634.28;6105907;19;19999;-72
2024/03/06 02:35:01;;;;;;;44.47;22.20;;;;;;;3.22;100.00;98638.94;6108247;19;20024;-72
2024/03/06 02:37:02;;;;;;;44.97;22.45;;;;;;;3.20;100.00;98639.28;6109486;19;20370;-72
2024/03/06 02:39:08;;;;;;;48.53;23.02;;;;;;;3.20;100.00;98639.28;6107069;19;20004;-72
2024/03/06 02:41:09;;;;;;;42.22;22.50;;;;;;;3.20;100.00;98646.69;6107777;19;20341;-72
2024/03/06 02:43:09;;;;;;;44.92;21.77;;;;;;;3.19;100.00;98640.41;6105950;19;20010;-71
2024/03/06 02:45:10;;;;;;;39.35;21.42;;;;;;;3.21;100.00;98651.81;6108650;19;20003;-71
2024/03/06 02:47:10;;;;;;;50.40;22.30;;;;;;;3.21;100.00;98645.56;6107864;19;20101;-71
2024/03/06 02:49:10;;;;;;;48.03;23.85;;;;;;;3.19;100.00;98645.88;6109303;19;20013;-72
2024/03/06 02:51:11;;;;;;;40.38;21.73;;;;;;;3.21;100.00;98648.28;6107097;19;20014;-72
2024/03/06 02:53:12;;;;;;;43.05;22.13;;;;;;;3.21;100.00;98649.09;6106362;19;20007;-72
2024/03/06 02:55:12;;;;;;;45.53;23.42;;;;;;;3.17;100.00;98656.34;6109205;19;20003;-72
2024/03/06 02:57:12;;;;;;;48.92;23.83;;;;;;;3.19;100.00;98654.09;6105601;19;20013;-72
2024/03/06 02:59:13;;;;;;;46.17;22.55;;;;;;;3.18;100.00;98652.47;6107497;19;20097;-72
2024/03/06 03:01:14;;;;;;;46.45;22.33;;;;;;;3.20;100.00;98660.34;6107033;19;20002;-72
2024/03/06 03:03:15;;;;;;;47.00;23.13;;;;;;;3.17;100.00;98659.09;6108481;19;20014;-72
2024/03/06 03:05:15;;;;;;;41.83;21.80;;;;;;;3.16;100.00;98659.41;6108752;19;20031;-72
2024/03/06 03:07:16;;;;;;;46.40;22.80;;;;;;;3.18;100.00;98657.16;6106948;19;20040;-72
2024/03/06 03:09:16;;;;;;;42.17;22.48;;;;;;;3.19;100.00;98656.81;6108607;19;20477;-72
2024/03/06 03:11:16;;;;;;;45.28;23.20;;;;;;;3.18;100.00;98657.16;6105350;19;20007;-72
2024/03/06 03:13:17;;;;;;;46.90;23.17;;;;;;;3.16;100.00;98657.47;6108374;19;20006;-72
2024/03/06 03:15:17;;;;;;;47.78;23.67;;;;;;;3.15;100.00;98655.06;6093289;19;20021;-72
2024/03/06 03:17:19;;;;;;;47.58;24.58;;;;;;;3.16;100.00;98659.41;6093460;19;20010;-72
2024/03/06 03:19:19;;;;;;;53.80;23.55;;;;;;;3.19;100.00;98670.50;6093116;19;20002;-72
2024/03/06 03:21:20;;;;;;;50.05;25.02;;;;;;;3.16;100.00;98657.47;6092504;19;20307;-72
2024/03/06 03:23:21;;;;;;;42.22;21.83;;;;;;;3.16;100.00;98660.22;6093543;19;20012;-72
2024/03/06 03:25:22;;;;;;;45.97;24.00;;;;;;;3.15;100.00;98660.56;6092573;19;20487;-71
2024/03/06 03:27:22;;;;;;;48.25;23.20;;;;;;;3.17;100.00;98670.03;6093405;19;21130;-72
2024/03/06 03:29:23;;;;;;;51.70;24.20;;;;;;;3.19;100.00;98659.56;6091999;19;20003;-72
2024/03/06 03:31:23;;;;;;;48.80;24.30;;;;;;;3.21;100.00;98668.22;6090743;19;19991;-72
2024/03/06 03:33:23;;;;;;;50.42;24.00;;;;;;;3.19;100.00;98665.03;6091638;19;20003;-72
2024/03/06 03:35:25;;;;;;;47.33;23.58;;;;;;;3.17;100.00;98666.50;6093920;19;20294;-72
2024/03/06 03:37:25;;;;;;;51.83;25.23;;;;;;;3.19;100.00;98675.97;6095176;19;20036;-72
2024/03/06 03:39:27;;;;;;;45.65;23.33;;;;;;;3.21;100.00;98672.91;6092156;19;20007;-72
2024/03/06 03:41:27;;;;;;;47.67;24.52;;;;;;;3.17;100.00;98667.28;6090912;19;19994;-72
2024/03/06 03:43:27;;;;;;;48.72;24.00;;;;;;;3.19;100.00;98672.44;6092777;19;19999;-72
2024/03/06 03:45:28;;;;;;;49.00;24.42;;;;;;;3.17;100.00;98671.94;6093644;19;20002;-72
2024/03/06 03:47:28;;;;;;;47.75;24.30;;;;;;;3.17;100.00;98674.69;6091276;19;20030;-72
2024/03/06 03:49:28;;;;;;;53.70;25.55;;;;;;;3.16;100.00;98678.56;6092883;19;20328;-72
2024/03/06 03:51:29;;;;;;;52.85;24.77;;;;;;;3.23;100.00;98679.66;6090949;19;20514;-72
2024/03/06 03:53:29;;;;;;;57.22;25.35;;;;;;;3.21;100.00;98676.44;6092135;19;20029;-72
2024/03/06 03:55:29;;;;;;;48.03;24.08;;;;;;;3.22;100.00;98678.03;6093068;19;20011;-72
2024/03/06 03:57:30;;;;;;;52.55;24.60;;;;;;;3.19;100.00;98675.97;6091805;19;20009;-72
2024/03/06 03:59:31;;;;;;;52.00;24.85;;;;;;;3.19;100.00;98680.63;6092828;19;20014;-72
2024/03/06 04:01:31;;;;;;;44.97;24.08;;;;;;;3.17;100.00;98682.88;6091607;19;20020;-72
2024/03/06 04:03:31;;;;;;;51.70;24.52;;;;;;;3.16;100.00;98681.28;6093124;19;20020;-72
2024/03/06 04:05:33;;;;;;;51.17;24.60;;;;;;;3.15;100.00;98688.69;6092612;19;20010;-72
2024/03/06 04:07:33;;;;;;;50.55;24.25;;;;;;;3.17;100.00;98691.09;6091650;19;20005;-72
2024/03/06 04:09:36;;;;;;;47.50;24.30;;;;;;;3.15;100.00;98702.34;6092556;19;20007;-72
2024/03/06 04:11:37;;;;;;;46.55;25.27;;;;;;;3.16;100.00;98698.50;6092108;19;20014;-71
2024/03/06 04:13:39;;;;;;;45.55;24.13;;;;;;;3.18;100.00;98704.44;6090027;19;20440;-72
2024/03/06 04:15:39;;;;;;;48.33;23.35;;;;;;;3.19;100.00;98711.50;6102755;19;20352;-72
2024/03/06 04:17:40;;;;;;;44.70;24.55;;;;;;;3.18;100.00;98706.38;6106267;19;20025;-72
2024/03/06 04:19:41;;;;;;;52.33;24.45;;;;;;;3.18;100.00;98714.56;6106422;19;20066;-71
2024/03/06 04:21:42;;;;;;;39.78;22.48;;;;;;;3.15;100.00;98718.75;6102342;19;20007;-72
2024/03/06 04:23:43;;;;;;;47.10;24.25;;;;;;;3.15;100.00;98715.22;6105951;19;20041;-72
2024/03/06 04:25:44;;;;;;;44.03;22.65;;;;;;;3.13;100.00;98712.78;6106142;19;20034;-72
2024/03/06 04:27:44;;;;;;;49.63;23.02;;;;;;;3.12;100.00;98711.19;6105384;19;20011;-72
2024/03/06 04:29:45;;;;;;;46.30;24.20;;;;;;;3.15;100.00;98717.97;6104045;19;20078;-72
2024/03/06 04:31:45;;;;;;;43.25;21.15;;;;;;;3.12;100.00;98710.38;6102810;19;20325;-72
2024/03/06 04:33:45;;;;;;;46.03;22.92;;;;;;;3.16;100.00;98717.63;6105082;19;20459;-72
2024/03/06 04:35:46;;;;;;;41.17;21.80;;;;;;;3.15;100.00;98717.97;6105173;19;20002;-72
2024/03/06 04:37:46;;;;;;;43.13;22.67;;;;;;;3.15;100.00;98713.28;6104982;19;20014;-72
2024/03/06 04:39:47;;;;;;;45.28;22.80;;;;;;;3.13;100.00;98714.72;6104783;19;20034;-72
2024/03/06 04:41:47;;;;;;;45.50;23.42;;;;;;;3.11;100.00;98717.78;6108987;19;20007;-72
2024/03/06 04:43:50;;;;;;;41.42;22.33;;;;;;;3.14;100.00;98719.88;6111158;19;20454;-72
2024/03/06 04:45:50;;;;;;;;;;;;;;;3.14;100.00;98724.53;6110249;19;20455;-72
2024/03/06 04:47:51;;;;;;;42.47;21.13;;;;;;;3.16;100.00;98730.50;6111159;19;20324;-72
2024/03/06 04:49:51;;;;;;;38.92;21.42;;;;;;;3.18;100.00;98729.03;6112466;19;20007;-72
2024/03/06 04:51:51;;;;;;;38.90;20.38;;;;;;;3.15;100.00;98726.16;6109810;19;20085;-72
2024/03/06 04:53:52;;;;;;;41.92;22.23;;;;;;;3.17;100.00;98726.63;6112732;19;20482;-72
2024/03/06 04:55:52;;;;;;;37.67;20.60;;;;;;;3.12;100.00;98735.78;6111466;19;20434;-72
2024/03/06 04:57:53;;;;;;;40.97;21.05;;;;;;;3.12;100.00;98732.25;6111804;19;20027;-72
2024/03/06 04:59:53;;;;;;;39.00;20.70;;;;;;;3.10;100.00;98735.31;6111797;19;20010;-72
2024/03/06 05:01:54;;;;;;;45.05;20.27;;;;;;;3.07;100.00;98744.19;6109879;19;20466;-72
2024/03/06 05:03:55;;;;;;;37.63;20.25;;;;;;;3.02;100.00;98739.66;6111817;19;20030;-72
2024/03/06 05:05:55;;;;;;;36.75;20.10;;;;;;;2.98;100.00;98748.81;6112434;19;20011;-72
2024/03/06 05:07:56;;;;;;;39.97;20.30;;;;;;;2.97;100.00;98750.75;6111453;19;20031;-72
2024/03/06 05:09:58;;;;;;;33.42;19.08;;;;;;;2.96;100.00;98748.34;6111074;19;20014;-72
2024/03/06 05:11:58;;;;;;;39.20;19.88;;;;;;;2.95;100.00;98744.00;6110232;19;20367;-72
2024/03/06 05:14:02;;;;;;;38.65;19.08;;;;;;;2.94;100.00;98748.66;6112143;19;20046;-72
2024/03/06 05:16:03;;;;;;;40.65;18.73;;;;;;;2.94;100.00;98759.59;6111147;19;20003;-72
2024/03/06 05:18:04;;;;;;;38.55;18.27;;;;;;;2.91;100.00;98764.91;6111226;19;20048;-72
2024/03/06 05:20:05;;;;;;;37.63;19.13;;;;;;;2.91;100.00;98753.97;6110524;19;20025;-72
2024/03/06 05:22:05;;;;;;;35.42;18.15;;;;;;;2.89;100.00;98753.47;6109385;19;20007;-72
2024/03/06 05:24:06;;;;;;;40.10;19.50;;;;;;;2.85;100.00;98760.72;6111963;19;20450;-72
2024/03/06 05:26:07;;;;;;;36.50;18.15;;;;;;;2.83;100.00;98758.31;6110669;19;20022;-72
2024/03/06 05:28:07;;;;;;;33.75;18.35;;;;;;;2.85;100.00;98755.25;6111288;19;20009;-72
2024/03/06 05:30:08;;;;;;;34.28;18.33;;;;;;;2.78;100.00;98759.25;6111039;19;20354;-72
2024/03/06 05:32:09;;;;;;;34.30;19.10;;;;;;;2.81;100.00;98764.09;6109868;19;20106;-72
2024/03/06 05:34:09;;;;;;;37.53;19.10;;;;;;;2.80;100.00;98764.41;6110206;19;20002;-72
2024/03/06 05:36:09;;;;;;;34.15;19.20;;;;;;;2.79;100.00;98776.47;6111049;19;20463;-72
2024/03/06 05:38:10;;;;;;;35.50;18.58;;;;;;;2.81;100.00;98771.47;6110653;19;20006;-72
2024/03/06 05:40:11;;;;;;;34.90;18.42;;;;;;;2.80;100.00;98775.31;6110865;19;20006;-72
2024/03/06 05:42:11;;;;;;;35.55;17.60;;;;;;;2.75;100.00;98779.03;6110380;19;20023;-72
2024/03/06 05:44:12;;;;;;;35.63;19.08;;;;;;;2.76;100.00;98777.91;6110680;19;20003;-72
2024/03/06 05:46:12;;;;;;;35.60;17.80;;;;;;;2.78;100.00;98778.38;6111043;19;20003;-72
2024/03/06 05:48:13;;;;;;;40.17;18.63;;;;;;;2.76;100.00;98775.19;6111533;19;20087;-72
2024/03/06 05:50:13;;;;;;;40.05;18.30;;;;;;;2.77;100.00;98782.25;6108289;19;20065;-72
2024/03/06 05:52:13;;;;;;;37.33;18.90;;;;;;;2.77;100.00;98787.72;6107745;19;20371;-72
2024/03/06 05:54:14;;;;;;;36.92;19.17;;;;;;;2.78;100.00;98793.97;6111061;19;20054;-72
2024/03/06 05:56:14;;;;;;;37.45;20.65;;;;;;;2.76;100.00;98793.50;6111141;19;19999;-72
2024/03/06 05:58:16;;;;;;;37.63;19.10;;;;;;;2.76;100.00;98796.22;6110164;19;20013;-72
2024/03/06 06:00:18;;;;;;;34.50;18.42;;;;;;;2.78;100.00;98791.25;6110040;19;20010;-72
2024/03/06 06:02:19;;;;;;;35.42;19.02;;;;;;;2.79;100.00;98795.59;6109483;19;20002;-72
2024/03/06 06:04:20;;;;;;;40.80;19.00;;;;;;;2.78;100.00;98797.50;6109883;19;20010;-72
2024/03/06 06:06:20;;;;;;;35.67;19.35;;;;;;;2.79;100.00;98801.06;6110370;19;20455;-72
2024/03/06 06:08:20;;;;;;;35.03;17.67;;;;;;;2.77;100.00;98806.84;6109937;19;20018;-72
2024/03/06 06:10:21;;;;;;;36.63;19.30;;;;;;;2.76;100.00;98801.69;6111025;19;20455;-72
2024/03/06 06:12:21;;;;;;;31.75;17.65;;;;;;;2.77;100.00;98808.78;6108654;19;20618;-72
2024/03/06 06:14:21;;;;;;;31.83;17.08;;;;;;;2.76;100.00;98805.22;6109365;19;20011;-72
2024/03/06 06:16:22;;;;;;;34.40;19.10;;;;;;;2.79;100.00;98809.25;6110486;19;20419;-72
2024/03/06 06:18:22;;;;;;;38.28;19.45;;;;;;;2.77;100.00;98815.03;6109842;19;20010;-72
2024/03/06 06:20:23;;;;;;;30.55;17.42;;;;;;;2.78;100.00;98813.09;6109395;19;20006;-72
2024/03/06 06:22:26;;;;;;;34.90;18.67;;;;;;;2.78;100.00;98824.03;6108797;19;20044;-72
2024/03/06 06:24:27;;;;;;;36.92;18.33;;;;;;;2.84;100.00;98827.44;6109995;19;20048;-72
2024/03/06 06:26:27;;;;;;;36.92;19.55;;;;;;;2.86;100.00;98825.19;6110051;19;20459;-72
2024/03/06 06:28:28;;;;;;;34.53;18.58;;;;;;;2.85;100.00;98829.84;6110231;19;20038;-72
2024/03/06 06:30:29;;;;;;;41.03;18.85;;;;;;;2.86;100.00;98836.13;6110766;19;20086;-71
2024/03/06 06:32:30;;;;;;;33.50;18.55;;;;;;;2.86;100.00;98850.59;6108166;19;20027;-72
2024/03/06 06:34:31;;;;;;;33.50;18.15;;;;;;;2.86;100.00;98850.59;6109156;19;20006;-72
2024/03/06 06:36:32;;;;;;;39.22;20.20;;;;;;;2.84;100.00;98847.38;6108953;19;20003;-72
2024/03/06 06:38:32;;;;;;;39.35;19.15;;;;;;;2.89;100.00;98849.94;6107438;19;20582;-72
2024/03/06 06:40:32;;;;;;;35.85;18.83;;;;;;;2.91;100.00;98853.19;6108267;19;20595;-72
2024/03/06 06:42:34;;;;;;;40.42;19.58;;;;;;;2.91;100.00;98855.09;6108422;19;20086;-72
2024/03/06 06:44:34;;;;;;;33.00;18.27;;;;;;;2.89;100.00;98849.13;6110829;19;20018;-71
2024/03/06 06:46:34;;;;;;;31.05;17.27;;;;;;;2.86;100.00;98857.97;6109062;19;20021;-71
2024/03/06 06:48:35;;;;;;;37.75;19.10;;;;;;;2.90;100.00;98869.91;6108551;19;20539;-71
2024/03/06 06:50:35;;;;;;;34.17;18.77;;;;;;;2.88;100.00;98862.00;6108473;19;20011;-71
2024/03/06 06:52:36;;;;;;;35.47;20.20;;;;;;;2.89;100.00;98860.06;6109811;19;20336;-72
2024/03/06 06:54:36;;;;;;;36.00;19.23;;;;;;;2.92;100.00;98867.66;6109103;19;20074;-72
2024/03/06 06:56:36;;;;;;;34.03;19.20;;;;;;;2.96;100.00;98871.34;6109219;19;20459;-72
2024/03/06 06:58:37;;;;;;;36.15;19.08;;;;;;;2.94;100.00;98870.84;6109674;19;20006;-72
2024/03/06 07:00:37;;;;;;;35.35;18.08;;;;;;;2.95;100.00;98877.94;6107817;19;20459;-72
2024/03/06 07:02:40;;;;;;;33.53;18.73;;;;;;;2.98;100.00;98869.09;6108301;19;20395;-72
2024/03/06 07:04:41;;;;;;;32.05;17.30;;;;;;;2.98;100.00;98874.56;6106252;19;20010;-72
2024/03/06 07:06:41;;;;;;;36.85;18.33;;;;;;;3.00;100.00;98884.06;6108654;19;20021;-72
2024/03/06 07:08:42;;;;;;;33.08;19.13;;;;;;;3.03;100.00;98885.34;6109100;19;20347;-72
2024/03/06 07:10:42;;;;;;;39.85;19.13;;;;;;;3.12;100.00;98886.16;6108075;19;20451;-72
2024/03/06 07:12:43;;;;;;;31.83;17.45;;;;;;;3.11;100.00;98884.56;6109130;19;20035;-72
2024/03/06 07:14:43;;;;;;;37.90;19.25;;;;;;;3.15;100.00;98882.00;6097374;19;20007;-72
2024/03/06 07:16:44;;;;;;;35.45;18.92;;;;;;;3.13;100.00;98885.03;6108400;19;20015;-72
2024/03/06 07:18:46;;;;;;;33.40;18.02;;;;;;;3.14;100.00;98894.03;6108816;19;20006;-71
2024/03/06 07:20:47;;;;;;;30.38;18.20;;;;;;;3.13;100.00;98889.69;6107613;19;20038;-71
2024/03/06 07:22:47;;;;;;;36.35;20.05;;;;;;;3.10;100.00;98893.88;6107296;19;20011;-71
2024/03/06 07:24:48;;;;;;;39.95;19.13;;;;;;;3.09;100.00;98895.81;6108985;19;20469;-71
2024/03/06 07:26:48;;;;;;;39.78;20.35;;;;;;;3.13;100.00;98889.69;6110121;19;20007;-72
2024/03/06 07:28:49;;;;;;;41.58;20.15;;;;;;;3.13;100.00;98895.16;6109126;19;20010;-72
2024/03/06 07:30:49;;;;;;;35.20;18.50;;;;;;;3.15;100.00;98898.41;6104955;19;20010;-72
2024/03/06 07:32:49;;;;;;;40.58;20.30;;;;;;;3.19;100.00;98904.84;6107601;19;20011;-72
2024/03/06 07:34:50;;;;;;;37.13;19.88;;;;;;;3.20;100.00;98907.25;6108832;19;20007;-72
2024/03/06 07:36:50;;;;;;;41.47;27.05;;;;;;;3.21;100.00;98906.13;6108571;19;20557;-72
2024/03/06 07:38:50;;;;;;;40.83;20.98;;;;;;;3.26;100.00;98910.66;6109161;19;20025;-72
2024/03/06 07:40:51;;;;;;;38.70;19.60;;;;;;;3.27;100.00;98904.06;6107114;19;20660;-72
2024/03/06 07:42:52;;;;;;;42.17;20.63;;;;;;;3.27;100.00;98913.06;6106195;19;20023;-72
2024/03/06 07:44:52;;;;;;;36.00;20.70;;;;;;;3.31;100.00;98905.00;6109256;19;20021;-72
2024/03/06 07:46:54;;;;;;;37.50;20.25;;;;;;;3.37;100.00;98920.94;6106813;19;20011;-72
2024/03/06 07:48:54;;;;;;;41.50;21.02;;;;;;;3.38;100.00;98916.28;6108401;19;20014;-72
2024/03/06 07:50:55;;;;;;;38.92;20.65;;;;;;;3.40;100.00;98922.25;6106201;19;20325;-71
2024/03/06 07:52:55;;;;;;;41.65;20.13;;;;;;;3.43;100.00;98924.34;6108125;19;20038;-71
2024/03/06 07:54:56;;;;;;;40.50;19.25;;;;;;;3.47;100.00;98924.50;6108750;19;20010;-71
2024/03/06 07:56:56;;;;;;;40.33;21.08;;;;;;;3.50;100.00;98921.16;6108893;19;20006;-71
2024/03/06 07:58:57;;;;;;;36.35;18.75;;;;;;;3.48;100.00;98923.41;6108422;19;20011;-71
2024/03/06 08:00:57;;;;;;;36.85;20.73;;;;;;;3.49;100.00;98919.53;6106170;19;20470;-71
2024/03/06 08:02:57;;;;;;;35.70;21.10;;;;;;;3.52;100.00;98924.34;6107878;19;20019;-71
2024/03/06 08:04:58;;;;;;;40.40;20.63;;;;;;;3.52;100.00;98924.34;6108006;19;20003;-71
2024/03/06 08:06:58;;;;;;;40.92;21.05;;;;;;;3.53;100.00;98918.56;6108580;19;20002;-71
2024/03/06 08:08:59;;;;;;;38.95;20.42;;;;;;;3.53;100.00;98931.44;6105985;19;20410;-71
2024/03/06 08:10:59;;;;;;;34.42;19.95;;;;;;;3.48;100.00;98940.63;6106927;19;20039;-72
2024/03/06 08:13:00;;;;;;;36.53;22.20;;;;;;;3.52;100.00;98938.03;6108101;19;20022;-72
2024/03/06 08:15:01;;;;;;;48.40;23.13;;;;;;;3.45;100.00;98929.50;6095299;19;20011;-72
2024/03/06 08:17:02;;;;;;;35.65;19.58;;;;;;;3.49;100.00;98944.16;6098942;19;20035;-72
2024/03/06 08:19:03;;;;;;;34.05;20.40;;;;;;;3.51;100.00;98939.97;6098387;19;20002;-72
2024/03/06 08:21:05;;;;;;;38.38;20.30;;;;;;;3.58;100.00;98934.84;6098361;19;20006;-72
2024/03/06 08:23:07;;;;;;;38.83;21.30;;;;;;;3.65;100.00;98946.09;6097934;19;20011;-72
2024/03/06 08:25:09;;;;;;;39.75;21.75;;;;;;;3.74;100.00;98948.03;6098643;19;20346;-72
2024/03/06 08:27:09;;;;;;;41.05;21.25;;;;;;;3.82;100.00;98956.25;6099693;19;20086;-72
2024/03/06 08:29:09;;;;;;;40.60;21.80;;;;;;;3.84;100.00;98959.47;6099766;19;20006;-72
2024/03/06 08:31:10;;;;;;;42.92;21.55;;;;;;;3.88;100.00;98957.69;6097537;19;22921;-72
2024/03/06 08:33:11;;;;;;;43.75;21.13;;;;;;;3.91;100.00;98967.22;6098903;19;20386;-72
2024/03/06 08:35:13;;;;;;;35.63;19.55;;;;;;;3.92;100.00;98952.38;6098801;19;20021;-72
2024/03/06 08:37:13;;;;;;;35.83;20.27;;;;;;;4.05;100.00;98978.78;6099426;19;20006;-72
2024/03/06 08:39:15;;;;;;;40.45;21.85;;;;;;;4.08;100.00;98969.13;6098022;19;19999;-72
2024/03/06 08:41:15;;;;;;;37.00;20.73;;;;;;;4.09;100.00;98968.00;6096788;19;20422;-72
2024/03/06 08:43:16;;;;;;;36.97;19.80;;;;;;;4.11;100.00;98969.28;6099074;19;20022;-72
2024/03/06 08:45:17;;;;;;;38.35;20.27;;;;;;;4.13;100.00;98966.22;6097672;19;20031;-71
2024/03/06 08:47:17;;;;;;;36.60;20.73;;;;;;;4.19;100.00;98970.41;6095636;19;20003;-72
2024/03/06 08:49:18;;;;;;;34.45;19.33;;;;;;;4.23;100.00;98972.19;6098717;19;20009;-72
2024/03/06 08:51:18;;;;;;;39.55;21.08;;;;;;;4.25;100.00;98973.78;6096867;19;20079;-72
2024/03/06 08:53:20;;;;;;;36.80;21.20;;;;;;;4.32;100.00;98968.63;6098397;19;20752;-72
2024/03/06 08:55:20;;;;;;;38.03;20.73;;;;;;;4.33;100.00;98975.72;6098808;19;20006;-72
2024/03/06 08:57:22;;;;;;;37.15;21.02;;;;;;;4.38;100.00;98968.09;6097996;19;20027;-72
2024/03/06 08:59:22;;;;;;;36.58;19.20;;;;;;;4.46;100.00;98975.50;6097671;19;20558;-72
2024/03/06 09:01:22;;;;;;;34.85;19.60;;;;;;;4.49;100.00;98979.56;6096422;19;20006;-72
2024/03/06 09:03:23;;;;;;;37.28;19.40;;;;;;;4.58;100.00;98979.53;6097685;19;20097;-72
2024/03/06 09:05:24;;;;;;;37.45;19.88;;;;;;;4.70;100.00;98982.38;6098549;19;20002;-72
2024/03/06 09:07:24;;;;;;;39.08;20.23;;;;;;;4.73;100.00;98977.06;6098518;19;20050;-72
2024/03/06 09:09:25;;;;;;;34.58;20.13;;;;;;;4.79;100.00;98983.16;6097451;19;20010;-72
2024/03/06 09:11:25;;;;;;;37.05;20.10;;;;;;;4.77;100.00;98977.22;6097355;19;19998;-72
2024/03/06 09:13:26;;;;;;;38.38;21.63;;;;;;;4.86;100.00;98974.44;6095547;19;20258;-72
2024/03/06 09:15:26;;;;;;;41.67;21.65;;;;;;;4.96;100.00;98982.28;6112029;19;20006;-72